sensor_id;sensor_type;location;lat;lon;timestamp;P1;durP1;ratioP1;P2;durP2;ratioP2
60426;SDS011;46274;47.168;27.604;2023-02-28T00:02:25;20.87;;;8.77;;
60426;SDS011;46274;47.168;27.604;2023-02-28T00:08:29;15.80;;;7.90;;
60426;SDS011;46274;47.168;27.604;2023-02-28T00:14:31;15.00;;;7.30;;
60426;SDS011;46274;47.168;27.604;2023-02-28T00:20:33;13.47;;;6.67;;
60426;SDS011;46274;47.168;27.604;2023-02-28T00:26:37;14.40;;;7.10;;
60426;SDS011;46274;47.168;27.604;2023-02-28T00:32:39;13.40;;;7.00;;
60426;SDS011;46274;47.168;27.604;2023-02-28T00:38:41;14.50;;;6.87;;
60426;SDS011;46274;47.168;27.604;2023-02-28T00:44:44;16.40;;;8.03;;
60426;SDS011;46274;47.168;27.604;2023-02-28T00:50:48;15.80;;;8.17;;
60426;SDS011;46274;47.168;27.604;2023-02-28T00:56:52;16.20;;;8.80;;
60426;SDS011;46274;47.168;27.604;2023-02-28T01:02:54;21.33;;;9.73;;
60426;SDS011;46274;47.168;27.604;2023-02-28T01:08:57;15.60;;;8.43;;
60426;SDS011;46274;47.168;27.604;2023-02-28T01:15:00;23.87;;;10.97;;
60426;SDS011;46274;47.168;27.604;2023-02-28T01:21:04;17.17;;;9.10;;
60426;SDS011;46274;47.168;27.604;2023-02-28T01:27:07;15.03;;;7.47;;
60426;SDS011;46274;47.168;27.604;2023-02-28T01:33:10;13.83;;;7.57;;
60426;SDS011;46274;47.168;27.604;2023-02-28T01:39:12;17.10;;;7.87;;
60426;SDS011;46274;47.168;27.604;2023-02-28T01:45:28;17.30;;;9.33;;
60426;SDS011;46274;47.168;27.604;2023-02-28T01:51:33;14.40;;;7.43;;
60426;SDS011;46274;47.168;27.604;2023-02-28T01:57:43;15.10;;;7.53;;
60426;SDS011;46274;47.168;27.604;2023-02-28T02:03:54;18.23;;;7.63;;
60426;SDS011;46274;47.168;27.604;2023-02-28T02:10:00;15.40;;;8.43;;
60426;SDS011;46274;47.168;27.604;2023-02-28T02:16:18;14.57;;;7.93;;
60426;SDS011;46274;47.168;27.604;2023-02-28T02:22:45;16.27;;;8.50;;
60426;SDS011;46274;47.168;27.604;2023-02-28T02:41:55;16.60;;;7.90;;
60426;SDS011;46274;47.168;27.604;2023-02-28T02:48:01;17.87;;;8.63;;
60426;SDS011;46274;47.168;27.604;2023-02-28T02:54:08;20.30;;;9.57;;
60426;SDS011;46274;47.168;27.604;2023-02-28T03:00:17;16.63;;;7.87;;
60426;SDS011;46274;47.168;27.604;2023-02-28T03:06:25;17.47;;;8.20;;
60426;SDS011;46274;47.168;27.604;2023-02-28T03:12:32;18.87;;;8.30;;
60426;SDS011;46274;47.168;27.604;2023-02-28T03:25:39;19.37;;;9.57;;
60426;SDS011;46274;47.168;27.604;2023-02-28T03:32:03;19.87;;;8.57;;
60426;SDS011;46274;47.168;27.604;2023-02-28T03:44:30;20.53;;;10.03;;
60426;SDS011;46274;47.168;27.604;2023-02-28T03:50:38;20.20;;;9.47;;
60426;SDS011;46274;47.168;27.604;2023-02-28T03:56:44;19.70;;;8.63;;
60426;SDS011;46274;47.168;27.604;2023-02-28T04:02:59;20.67;;;8.77;;
60426;SDS011;46274;47.168;27.604;2023-02-28T04:09:02;15.17;;;8.37;;
60426;SDS011;46274;47.168;27.604;2023-02-28T04:15:06;17.50;;;9.23;;
60426;SDS011;46274;47.168;27.604;2023-02-28T04:21:10;16.50;;;8.07;;
60426;SDS011;46274;47.168;27.604;2023-02-28T04:27:14;15.03;;;8.13;;
60426;SDS011;46274;47.168;27.604;2023-02-28T04:33:17;17.77;;;8.63;;
60426;SDS011;46274;47.168;27.604;2023-02-28T04:39:19;18.03;;;8.33;;
60426;SDS011;46274;47.168;27.604;2023-02-28T04:45:22;16.97;;;7.90;;
60426;SDS011;46274;47.168;27.604;2023-02-28T04:51:24;20.60;;;8.60;;
60426;SDS011;46274;47.168;27.604;2023-02-28T04:57:26;19.53;;;7.90;;
60426;SDS011;46274;47.168;27.604;2023-02-28T05:03:29;19.03;;;7.80;;
60426;SDS011;46274;47.168;27.604;2023-02-28T05:09:31;15.00;;;7.53;;
60426;SDS011;46274;47.168;27.604;2023-02-28T05:15:35;19.60;;;8.33;;
60426;SDS011;46274;47.168;27.604;2023-02-28T05:21:38;19.20;;;8.53;;
60426;SDS011;46274;47.168;27.604;2023-02-28T05:27:42;20.53;;;7.90;;
60426;SDS011;46274;47.168;27.604;2023-02-28T05:33:44;19.03;;;8.87;;
60426;SDS011;46274;47.168;27.604;2023-02-28T05:39:46;16.70;;;7.80;;
60426;SDS011;46274;47.168;27.604;2023-02-28T05:45:49;17.07;;;8.70;;
60426;SDS011;46274;47.168;27.604;2023-02-28T05:51:51;19.93;;;9.23;;
60426;SDS011;46274;47.168;27.604;2023-02-28T05:57:54;22.43;;;10.70;;
60426;SDS011;46274;47.168;27.604;2023-02-28T06:03:56;22.17;;;10.43;;
60426;SDS011;46274;47.168;27.604;2023-02-28T06:10:00;19.37;;;9.87;;
60426;SDS011;46274;47.168;27.604;2023-02-28T06:16:02;22.50;;;9.17;;
60426;SDS011;46274;47.168;27.604;2023-02-28T06:22:03;23.90;;;10.37;;
60426;SDS011;46274;47.168;27.604;2023-02-28T06:28:05;25.43;;;9.23;;
60426;SDS011;46274;47.168;27.604;2023-02-28T06:34:08;20.47;;;9.23;;
60426;SDS011;46274;47.168;27.604;2023-02-28T06:40:10;19.27;;;8.83;;
60426;SDS011;46274;47.168;27.604;2023-02-28T06:46:15;20.50;;;9.53;;
60426;SDS011;46274;47.168;27.604;2023-02-28T06:52:16;21.60;;;10.03;;
60426;SDS011;46274;47.168;27.604;2023-02-28T06:58:19;26.40;;;11.40;;
60426;SDS011;46274;47.168;27.604;2023-02-28T07:04:21;21.73;;;9.30;;
60426;SDS011;46274;47.168;27.604;2023-02-28T07:10:23;22.47;;;9.60;;
60426;SDS011;46274;47.168;27.604;2023-02-28T07:16:25;20.70;;;9.70;;
60426;SDS011;46274;47.168;27.604;2023-02-28T07:22:27;19.83;;;9.53;;
60426;SDS011;46274;47.168;27.604;2023-02-28T07:28:30;30.50;;;11.50;;
60426;SDS011;46274;47.168;27.604;2023-02-28T07:34:31;23.03;;;10.07;;
60426;SDS011;46274;47.168;27.604;2023-02-28T07:40:34;24.90;;;11.23;;
60426;SDS011;46274;47.168;27.604;2023-02-28T07:46:36;24.73;;;10.50;;
60426;SDS011;46274;47.168;27.604;2023-02-28T07:52:39;32.83;;;11.10;;
60426;SDS011;46274;47.168;27.604;2023-02-28T07:58:41;24.83;;;11.83;;
60426;SDS011;46274;47.168;27.604;2023-02-28T08:04:43;26.73;;;12.10;;
60426;SDS011;46274;47.168;27.604;2023-02-28T08:10:45;27.30;;;11.97;;
60426;SDS011;46274;47.168;27.604;2023-02-28T08:16:47;30.33;;;12.03;;
60426;SDS011;46274;47.168;27.604;2023-02-28T08:22:49;28.33;;;12.20;;
60426;SDS011;46274;47.168;27.604;2023-02-28T08:28:51;30.23;;;12.97;;
60426;SDS011;46274;47.168;27.604;2023-02-28T08:34:56;33.03;;;13.20;;
60426;SDS011;46274;47.168;27.604;2023-02-28T08:41:02;26.50;;;11.93;;
60426;SDS011;46274;47.168;27.604;2023-02-28T08:47:08;26.93;;;12.97;;
60426;SDS011;46274;47.168;27.604;2023-02-28T08:53:10;30.27;;;13.27;;
60426;SDS011;46274;47.168;27.604;2023-02-28T08:59:12;28.73;;;11.93;;
60426;SDS011;46274;47.168;27.604;2023-02-28T09:05:14;27.93;;;11.83;;
60426;SDS011;46274;47.168;27.604;2023-02-28T09:11:17;29.00;;;12.70;;
60426;SDS011;46274;47.168;27.604;2023-02-28T09:17:20;24.20;;;11.13;;
60426;SDS011;46274;47.168;27.604;2023-02-28T09:23:22;26.87;;;11.43;;
60426;SDS011;46274;47.168;27.604;2023-02-28T09:29:24;20.07;;;10.80;;
60426;SDS011;46274;47.168;27.604;2023-02-28T09:35:27;27.40;;;13.37;;
60426;SDS011;46274;47.168;27.604;2023-02-28T09:41:30;28.10;;;12.43;;
60426;SDS011;46274;47.168;27.604;2023-02-28T09:47:44;26.73;;;13.43;;
60426;SDS011;46274;47.168;27.604;2023-02-28T09:53:48;23.63;;;11.97;;
60426;SDS011;46274;47.168;27.604;2023-02-28T10:00:12;24.43;;;12.03;;
60426;SDS011;46274;47.168;27.604;2023-02-28T10:06:21;24.20;;;11.10;;
60426;SDS011;46274;47.168;27.604;2023-02-28T10:12:27;25.43;;;12.50;;
60426;SDS011;46274;47.168;27.604;2023-02-28T10:18:36;31.77;;;14.00;;
60426;SDS011;46274;47.168;27.604;2023-02-28T10:24:48;29.03;;;12.80;;
60426;SDS011;46274;47.168;27.604;2023-02-28T10:30:54;24.97;;;11.40;;
60426;SDS011;46274;47.168;27.604;2023-02-28T10:36:57;25.90;;;11.60;;
60426;SDS011;46274;47.168;27.604;2023-02-28T10:49:20;24.33;;;12.37;;
60426;SDS011;46274;47.168;27.604;2023-02-28T10:55:25;27.40;;;12.53;;
60426;SDS011;46274;47.168;27.604;2023-02-28T11:01:35;28.97;;;12.37;;
60426;SDS011;46274;47.168;27.604;2023-02-28T11:07:40;28.00;;;12.30;;
60426;SDS011;46274;47.168;27.604;2023-02-28T11:13:54;21.63;;;10.50;;
60426;SDS011;46274;47.168;27.604;2023-02-28T11:20:04;22.13;;;10.60;;
60426;SDS011;46274;47.168;27.604;2023-02-28T11:26:08;27.73;;;11.67;;
60426;SDS011;46274;47.168;27.604;2023-02-28T11:32:19;21.97;;;11.10;;
60426;SDS011;46274;47.168;27.604;2023-02-28T11:38:24;23.07;;;11.43;;
60426;SDS011;46274;47.168;27.604;2023-02-28T11:44:31;23.37;;;10.93;;
60426;SDS011;46274;47.168;27.604;2023-02-28T12:29:36;20.20;;;10.07;;
60426;SDS011;46274;47.168;27.604;2023-02-28T12:35:58;21.70;;;10.70;;
60426;SDS011;46274;47.168;27.604;2023-02-28T12:48:52;24.30;;;11.70;;
60426;SDS011;46274;47.168;27.604;2023-02-28T12:55:10;31.20;;;12.67;;
60426;SDS011;46274;47.168;27.604;2023-02-28T13:07:56;26.47;;;11.53;;
60426;SDS011;46274;47.168;27.604;2023-02-28T13:20:36;24.73;;;11.37;;
60426;SDS011;46274;47.168;27.604;2023-02-28T13:33:17;24.83;;;11.90;;
60426;SDS011;46274;47.168;27.604;2023-02-28T13:46:03;30.70;;;11.47;;
60426;SDS011;46274;47.168;27.604;2023-02-28T13:52:18;32.43;;;13.10;;
60426;SDS011;46274;47.168;27.604;2023-02-28T14:05:05;28.80;;;11.73;;
60426;SDS011;46274;47.168;27.604;2023-02-28T14:11:30;28.13;;;12.17;;
60426;SDS011;46274;47.168;27.604;2023-02-28T14:17:40;25.03;;;10.63;;
60426;SDS011;46274;47.168;27.604;2023-02-28T14:30:35;23.47;;;10.70;;
60426;SDS011;46274;47.168;27.604;2023-02-28T14:36:47;28.40;;;10.93;;
60426;SDS011;46274;47.168;27.604;2023-02-28T14:43:00;26.53;;;10.57;;
60426;SDS011;46274;47.168;27.604;2023-02-28T14:49:07;28.30;;;11.93;;
60426;SDS011;46274;47.168;27.604;2023-02-28T14:55:19;35.20;;;15.27;;
60426;SDS011;46274;47.168;27.604;2023-02-28T15:01:26;27.60;;;11.50;;
60426;SDS011;46274;47.168;27.604;2023-02-28T15:07:29;27.53;;;11.20;;
60426;SDS011;46274;47.168;27.604;2023-02-28T15:19:54;50.83;;;19.20;;
60426;SDS011;46274;47.168;27.604;2023-02-28T15:25:57;32.83;;;14.60;;
60426;SDS011;46274;47.168;27.604;2023-02-28T15:32:02;52.20;;;21.00;;
60426;SDS011;46274;47.168;27.604;2023-02-28T15:38:24;35.33;;;14.60;;
60426;SDS011;46274;47.168;27.604;2023-02-28T15:44:28;33.73;;;14.73;;
60426;SDS011;46274;47.168;27.604;2023-02-28T15:50:40;31.73;;;11.93;;
60426;SDS011;46274;47.168;27.604;2023-02-28T15:56:44;28.73;;;11.43;;
60426;SDS011;46274;47.168;27.604;2023-02-28T16:02:48;27.50;;;11.30;;
60426;SDS011;46274;47.168;27.604;2023-02-28T16:08:51;30.33;;;11.97;;
60426;SDS011;46274;47.168;27.604;2023-02-28T16:14:55;25.73;;;11.13;;
60426;SDS011;46274;47.168;27.604;2023-02-28T16:21:00;27.90;;;11.40;;
60426;SDS011;46274;47.168;27.604;2023-02-28T16:27:02;25.00;;;12.13;;
60426;SDS011;46274;47.168;27.604;2023-02-28T16:33:05;25.93;;;12.17;;
60426;SDS011;46274;47.168;27.604;2023-02-28T16:39:07;29.37;;;13.10;;
60426;SDS011;46274;47.168;27.604;2023-02-28T16:45:30;27.93;;;11.47;;
60426;SDS011;46274;47.168;27.604;2023-02-28T16:51:32;27.07;;;11.30;;
60426;SDS011;46274;47.168;27.604;2023-02-28T16:57:36;25.77;;;11.27;;
60426;SDS011;46274;47.168;27.604;2023-02-28T17:03:39;28.63;;;13.20;;
60426;SDS011;46274;47.168;27.604;2023-02-28T17:09:43;29.93;;;13.80;;
60426;SDS011;46274;47.168;27.604;2023-02-28T17:15:47;30.33;;;12.40;;
60426;SDS011;46274;47.168;27.604;2023-02-28T17:21:50;29.37;;;12.03;;
60426;SDS011;46274;47.168;27.604;2023-02-28T17:27:52;30.57;;;14.47;;
60426;SDS011;46274;47.168;27.604;2023-02-28T17:33:54;49.03;;;20.37;;
60426;SDS011;46274;47.168;27.604;2023-02-28T17:39:57;59.33;;;23.73;;
60426;SDS011;46274;47.168;27.604;2023-02-28T17:45:59;31.30;;;14.67;;
60426;SDS011;46274;47.168;27.604;2023-02-28T17:52:01;32.83;;;14.70;;
60426;SDS011;46274;47.168;27.604;2023-02-28T17:58:03;42.23;;;18.23;;
60426;SDS011;46274;47.168;27.604;2023-02-28T18:04:06;44.83;;;19.60;;
60426;SDS011;46274;47.168;27.604;2023-02-28T18:10:16;40.80;;;19.57;;
60426;SDS011;46274;47.168;27.604;2023-02-28T18:16:21;54.10;;;23.37;;
60426;SDS011;46274;47.168;27.604;2023-02-28T18:22:25;85.67;;;35.67;;
60426;SDS011;46274;47.168;27.604;2023-02-28T18:28:27;115.27;;;38.03;;
60426;SDS011;46274;47.168;27.604;2023-02-28T18:34:29;70.30;;;25.87;;
60426;SDS011;46274;47.168;27.604;2023-02-28T18:40:31;42.57;;;17.23;;
60426;SDS011;46274;47.168;27.604;2023-02-28T18:46:34;42.37;;;17.93;;
60426;SDS011;46274;47.168;27.604;2023-02-28T18:52:38;36.23;;;16.83;;
60426;SDS011;46274;47.168;27.604;2023-02-28T18:58:41;36.00;;;15.47;;
60426;SDS011;46274;47.168;27.604;2023-02-28T19:04:43;38.63;;;15.87;;
60426;SDS011;46274;47.168;27.604;2023-02-28T19:10:45;45.50;;;17.93;;
60426;SDS011;46274;47.168;27.604;2023-02-28T19:16:47;40.37;;;16.40;;
60426;SDS011;46274;47.168;27.604;2023-02-28T19:22:50;42.30;;;17.57;;
60426;SDS011;46274;47.168;27.604;2023-02-28T19:28:52;48.30;;;19.80;;
60426;SDS011;46274;47.168;27.604;2023-02-28T19:34:55;110.03;;;39.23;;
60426;SDS011;46274;47.168;27.604;2023-02-28T19:41:01;99.73;;;36.70;;
60426;SDS011;46274;47.168;27.604;2023-02-28T19:47:07;69.67;;;27.60;;
60426;SDS011;46274;47.168;27.604;2023-02-28T19:53:08;65.20;;;26.27;;
60426;SDS011;46274;47.168;27.604;2023-02-28T19:59:10;72.33;;;30.03;;
60426;SDS011;46274;47.168;27.604;2023-02-28T20:05:26;71.20;;;29.30;;
60426;SDS011;46274;47.168;27.604;2023-02-28T20:11:28;62.53;;;25.00;;
60426;SDS011;46274;47.168;27.604;2023-02-28T20:17:31;58.27;;;23.53;;
60426;SDS011;46274;47.168;27.604;2023-02-28T20:23:33;58.47;;;25.60;;
60426;SDS011;46274;47.168;27.604;2023-02-28T20:29:36;70.17;;;28.30;;
60426;SDS011;46274;47.168;27.604;2023-02-28T20:35:38;58.60;;;24.37;;
60426;SDS011;46274;47.168;27.604;2023-02-28T20:41:41;56.17;;;23.80;;
60426;SDS011;46274;47.168;27.604;2023-02-28T20:47:42;57.57;;;23.90;;
60426;SDS011;46274;47.168;27.604;2023-02-28T20:53:46;58.57;;;24.40;;
60426;SDS011;46274;47.168;27.604;2023-02-28T20:59:49;63.57;;;25.13;;
60426;SDS011;46274;47.168;27.604;2023-02-28T21:05:55;54.83;;;23.37;;
60426;SDS011;46274;47.168;27.604;2023-02-28T21:12:01;53.07;;;21.73;;
60426;SDS011;46274;47.168;27.604;2023-02-28T21:18:03;40.33;;;16.93;;
60426;SDS011;46274;47.168;27.604;2023-02-28T21:24:05;40.37;;;17.30;;
60426;SDS011;46274;47.168;27.604;2023-02-28T21:30:07;40.73;;;16.00;;
60426;SDS011;46274;47.168;27.604;2023-02-28T21:36:18;36.63;;;14.63;;
60426;SDS011;46274;47.168;27.604;2023-02-28T21:42:22;37.83;;;15.10;;
60426;SDS011;46274;47.168;27.604;2023-02-28T21:48:24;41.43;;;18.43;;
60426;SDS011;46274;47.168;27.604;2023-02-28T21:54:26;39.90;;;17.53;;
60426;SDS011;46274;47.168;27.604;2023-02-28T22:00:29;42.67;;;18.33;;
60426;SDS011;46274;47.168;27.604;2023-02-28T22:06:32;40.83;;;18.77;;
60426;SDS011;46274;47.168;27.604;2023-02-28T22:12:36;39.63;;;18.00;;
60426;SDS011;46274;47.168;27.604;2023-02-28T22:18:38;44.03;;;18.07;;
60426;SDS011;46274;47.168;27.604;2023-02-28T22:24:41;41.03;;;17.97;;
60426;SDS011;46274;47.168;27.604;2023-02-28T22:30:43;40.60;;;20.27;;
60426;SDS011;46274;47.168;27.604;2023-02-28T22:36:45;42.73;;;18.87;;
60426;SDS011;46274;47.168;27.604;2023-02-28T22:42:46;41.80;;;17.47;;
60426;SDS011;46274;47.168;27.604;2023-02-28T22:48:48;43.40;;;19.33;;
60426;SDS011;46274;47.168;27.604;2023-02-28T22:54:51;42.27;;;18.97;;
60426;SDS011;46274;47.168;27.604;2023-02-28T23:00:53;43.63;;;19.10;;
60426;SDS011;46274;47.168;27.604;2023-02-28T23:06:56;48.30;;;20.93;;
60426;SDS011;46274;47.168;27.604;2023-02-28T23:12:59;45.83;;;20.43;;
60426;SDS011;46274;47.168;27.604;2023-02-28T23:19:03;49.37;;;21.97;;
60426;SDS011;46274;47.168;27.604;2023-02-28T23:25:13;48.47;;;19.83;;
60426;SDS011;46274;47.168;27.604;2023-02-28T23:31:16;46.97;;;19.40;;
60426;SDS011;46274;47.168;27.604;2023-02-28T23:37:18;55.27;;;19.97;;
60426;SDS011;46274;47.168;27.604;2023-02-28T23:43:21;54.63;;;22.23;;
60426;SDS011;46274;47.168;27.604;2023-02-28T23:49:24;43.40;;;19.10;;
60426;SDS011;46274;47.168;27.604;2023-02-28T23:55:26;53.30;;;20.63;;
